createdAt,value
2023-10-01T00:04:23.228Z,13.95
2023-10-01T00:10:27.075Z,14.08
2023-10-01T00:16:30.554Z,13.85
2023-10-01T00:22:34.833Z,13.75
2023-10-01T00:28:37.207Z,13.56
2023-10-01T00:34:39.163Z,13.58
2023-10-01T00:40:46.563Z,13.61
2023-10-01T00:46:49.439Z,13.64
2023-10-01T00:52:54.393Z,13.60
2023-10-01T00:58:56.657Z,13.73
2023-10-01T01:05:20.989Z,13.81
2023-10-01T01:11:27.314Z,13.88
2023-10-01T01:17:32.243Z,13.81
2023-10-01T01:23:35.172Z,13.82
2023-10-01T01:29:45.941Z,13.85
2023-10-01T01:35:52.140Z,13.79
2023-10-01T01:41:55.659Z,13.62
2023-10-01T01:47:57.621Z,13.76
2023-10-01T01:54:00.537Z,13.80
2023-10-01T02:00:15.157Z,13.87
2023-10-01T02:06:28.012Z,13.98
2023-10-01T02:12:31.354Z,14.04
2023-10-01T02:18:33.347Z,14.07
2023-10-01T02:24:56.109Z,14.03
2023-10-01T02:31:01.952Z,13.86
2023-10-01T02:37:08.161Z,13.90
2023-10-01T02:43:10.472Z,13.84
2023-10-01T02:49:14.057Z,13.93
2023-10-01T02:55:19.885Z,13.89
2023-10-01T03:01:22.513Z,13.91
2023-10-01T03:07:26.410Z,13.94
2023-10-01T03:13:32.082Z,14.00
2023-10-01T03:19:37.427Z,14.03
2023-10-01T03:25:57.395Z,14.28
2023-10-01T03:32:19.330Z,14.10
2023-10-01T03:38:24.113Z,14.07
2023-10-01T03:44:44.276Z,14.27
2023-10-01T03:50:46.828Z,14.29
2023-10-01T03:56:58.818Z,14.15
2023-10-01T04:03:02.198Z,14.18
2023-10-01T04:09:07.558Z,14.16
2023-10-01T04:15:10.768Z,14.41
2023-10-01T04:21:12.773Z,14.20
2023-10-01T04:27:24.492Z,14.20
2023-10-01T04:33:26.685Z,14.25
2023-10-01T04:39:28.617Z,14.26
2023-10-01T04:45:37.755Z,14.15
2023-10-01T04:51:48.523Z,14.08
2023-10-01T04:57:51.375Z,14.05
2023-10-01T05:03:55.285Z,14.17
2023-10-01T05:09:57.383Z,14.18
2023-10-01T05:15:59.447Z,14.12
2023-10-01T05:22:02.584Z,14.02
2023-10-01T05:28:24.491Z,13.99
2023-10-01T05:34:26.593Z,14.04
2023-10-01T05:40:31.282Z,14.03
2023-10-01T05:46:33.435Z,14.06
2023-10-01T05:52:41.325Z,14.11
2023-10-01T05:58:43.319Z,14.20
2023-10-01T06:04:45.280Z,14.41
2023-10-01T06:11:00.887Z,14.55
2023-10-01T06:17:06.377Z,14.66
2023-10-01T06:23:08.823Z,14.78
2023-10-01T06:29:12.506Z,15.15
2023-10-01T06:35:15.821Z,15.35
2023-10-01T06:41:20.190Z,15.45
2023-10-01T06:47:27.176Z,15.59
2023-10-01T06:53:45.116Z,15.85
2023-10-01T06:59:47.126Z,15.88
2023-10-01T07:05:57.115Z,16.02
2023-10-01T07:12:00.406Z,16.09
2023-10-01T07:18:14.754Z,16.32
2023-10-01T07:24:16.955Z,16.46
2023-10-01T07:30:19.507Z,16.88
2023-10-01T07:36:24.684Z,17.26
2023-10-01T07:42:28.462Z,17.54
2023-10-01T07:48:32.791Z,18.02
2023-10-01T07:54:34.815Z,18.89
2023-10-01T08:00:37.598Z,19.98
2023-10-01T08:06:43.664Z,21.34
2023-10-01T08:12:51.807Z,21.16
2023-10-01T08:18:59.599Z,21.01
2023-10-01T08:25:09.728Z,21.93
2023-10-01T08:31:41.091Z,21.12
2023-10-01T08:37:50.615Z,20.84
2023-10-01T08:44:10.310Z,22.43
2023-10-01T08:50:27.556Z,24.73
2023-10-01T08:56:35.524Z,23.18
2023-10-01T09:02:40.356Z,21.91
2023-10-01T09:08:46.477Z,21.35
2023-10-01T09:14:48.458Z,21.73
2023-10-01T09:21:05.066Z,22.74
2023-10-01T09:27:35.866Z,22.02
2023-10-01T09:33:41.137Z,21.77
2023-10-01T09:39:43.491Z,22.36
2023-10-01T09:45:53.618Z,22.16
2023-10-01T09:52:00.133Z,23.18
2023-10-01T09:58:11.429Z,26.42
2023-10-01T10:04:21.528Z,28.99
2023-10-01T10:10:28.002Z,26.09
2023-10-01T10:16:36.845Z,24.86
2023-10-01T10:22:39.545Z,25.22
2023-10-01T10:28:56.302Z,26.48
2023-10-01T10:35:07.889Z,27.51
2023-10-01T10:41:10.052Z,28.33
2023-10-01T10:47:13.173Z,26.55
2023-10-01T10:53:44.572Z,26.14
2023-10-01T10:59:48.858Z,25.24
2023-10-01T11:05:50.867Z,24.92
2023-10-01T11:12:06.946Z,26.06
2023-10-01T11:18:12.550Z,28.39
2023-10-01T11:24:14.905Z,29.07
2023-10-01T11:30:17.632Z,28.79
2023-10-01T11:36:22.671Z,29.28
2023-10-01T11:42:39.682Z,29.78
2023-10-01T11:48:57.906Z,27.53
2023-10-01T11:55:00.416Z,25.33
2023-10-01T12:01:11.917Z,24.08
2023-10-01T12:07:19.509Z,23.30
2023-10-01T12:13:22.871Z,25.11
2023-10-01T12:19:25.532Z,27.06
2023-10-01T12:25:43.636Z,28.72
2023-10-01T12:31:46.027Z,30.69
2023-10-01T12:37:48.194Z,32.65
2023-10-01T12:43:51.201Z,34.52
2023-10-01T12:50:00.277Z,34.15
2023-10-01T12:56:06.367Z,33.49
2023-10-01T13:02:42.309Z,31.45
2023-10-01T13:08:45.534Z,31.07
2023-10-01T13:15:12.544Z,29.03
2023-10-01T13:21:15.004Z,29.27
2023-10-01T13:27:18.688Z,30.52
2023-10-01T13:33:22.016Z,32.20
2023-10-01T13:39:45.462Z,32.74
2023-10-01T13:46:05.640Z,31.41
2023-10-01T13:52:26.319Z,30.81
2023-10-01T13:58:46.653Z,30.09
2023-10-01T14:05:07.598Z,31.51
2023-10-01T14:11:11.171Z,32.64
2023-10-01T14:17:16.355Z,31.94
2023-10-01T14:23:24.493Z,29.38
2023-10-01T14:29:32.966Z,30.02
2023-10-01T14:35:39.014Z,30.80
2023-10-01T14:41:47.093Z,29.85
2023-10-01T14:47:49.851Z,29.74
2023-10-01T14:53:55.815Z,28.73
2023-10-01T14:59:58.173Z,27.83
2023-10-01T15:06:05.151Z,26.67
2023-10-01T15:12:20.193Z,28.40
2023-10-01T15:18:35.956Z,27.95
2023-10-01T15:24:45.582Z,26.66
2023-10-01T15:30:49.144Z,26.51
2023-10-01T15:36:51.903Z,25.51
2023-10-01T15:42:56.988Z,24.97
2023-10-01T15:49:02.518Z,24.54
2023-10-01T15:55:08.679Z,24.12
2023-10-01T16:01:20.887Z,23.85
2023-10-01T16:07:22.959Z,23.20
2023-10-01T16:13:29.696Z,22.53
2023-10-01T16:19:31.947Z,22.10
2023-10-01T16:25:36.124Z,21.66
2023-10-01T16:31:38.198Z,21.31
2023-10-01T16:37:40.368Z,20.95
2023-10-01T16:43:43.916Z,20.43
2023-10-01T16:49:46.017Z,20.33
2023-10-01T16:55:52.106Z,19.84
2023-10-01T17:01:59.654Z,19.73
2023-10-01T17:08:02.693Z,19.71
2023-10-01T17:14:15.769Z,19.26
2023-10-01T17:20:32.145Z,19.12
2023-10-01T17:26:51.302Z,19.31
2023-10-01T17:33:03.091Z,19.08
2023-10-01T17:39:21.583Z,19.13
2023-10-01T17:45:23.677Z,19.14
2023-10-01T17:51:28.749Z,19.41
2023-10-01T17:57:37.870Z,19.02
2023-10-01T18:03:54.128Z,18.98
2023-10-01T18:09:56.903Z,18.84
2023-10-01T18:15:58.875Z,18.39
2023-10-01T18:22:05.028Z,18.50
2023-10-01T18:28:08.883Z,18.15
2023-10-01T18:34:11.838Z,18.29
2023-10-01T18:40:18.072Z,18.32
2023-10-01T18:46:20.287Z,18.13
2023-10-01T18:52:23.861Z,18.08
2023-10-01T18:58:26.016Z,17.96
2023-10-01T19:04:34.748Z,17.90
2023-10-01T19:10:38.141Z,17.97
2023-10-01T19:16:40.299Z,17.85
2023-10-01T19:22:52.617Z,17.64
2023-10-01T19:28:55.117Z,17.62
2023-10-01T19:35:00.696Z,17.48
2023-10-01T19:41:02.687Z,17.60
2023-10-01T19:47:16.068Z,17.37
2023-10-01T19:53:26.451Z,17.28
2023-10-01T19:59:32.293Z,17.32
2023-10-01T20:05:47.941Z,17.26
2023-10-01T20:11:57.602Z,17.15
2023-10-01T20:18:12.285Z,17.14
2023-10-01T20:24:23.647Z,17.10
2023-10-01T20:30:26.293Z,17.17
2023-10-01T20:36:28.800Z,17.36
2023-10-01T20:42:30.800Z,17.35
2023-10-01T20:48:38.314Z,17.73
2023-10-01T20:54:45.945Z,17.62
2023-10-01T21:00:51.950Z,18.09
2023-10-01T21:07:03.175Z,17.85
2023-10-01T21:13:05.448Z,17.78
2023-10-01T21:19:13.030Z,17.63
2023-10-01T21:25:26.514Z,17.42
2023-10-01T21:31:28.735Z,17.35
2023-10-01T21:37:31.841Z,17.22
2023-10-01T21:43:33.947Z,17.04
2023-10-01T21:49:48.258Z,17.16
2023-10-01T21:55:50.243Z,16.80
2023-10-01T22:02:02.752Z,16.71
2023-10-01T22:08:25.856Z,16.60
2023-10-01T22:14:29.709Z,16.48
2023-10-01T22:20:32.324Z,16.48
2023-10-01T22:26:36.579Z,16.43
2023-10-01T22:32:38.730Z,16.31
2023-10-01T22:38:51.310Z,16.27
2023-10-01T22:45:28.150Z,16.22
2023-10-01T22:51:31.773Z,16.09
2023-10-01T22:57:44.877Z,16.03
2023-10-01T23:03:47.536Z,15.93
2023-10-01T23:09:49.966Z,15.88
2023-10-01T23:15:52.392Z,15.99
2023-10-01T23:22:01.941Z,15.63
2023-10-01T23:28:15.257Z,15.76
2023-10-01T23:34:23.822Z,15.54
2023-10-01T23:40:26.209Z,15.48
2023-10-01T23:46:34.485Z,15.44
2023-10-01T23:52:36.562Z,15.34
2023-10-01T23:58:47.656Z,15.30
